createdAt,value
2018-06-20T00:00:07.707Z,85.00
2018-06-20T00:02:35.994Z,85.10
2018-06-20T00:05:04.247Z,85.30
2018-06-20T00:07:32.488Z,85.40
2018-06-20T00:10:00.712Z,85.50
2018-06-20T00:12:28.934Z,85.70
2018-06-20T00:14:57.172Z,85.80
2018-06-20T00:17:25.485Z,85.80
2018-06-20T00:19:53.716Z,86.10
2018-06-20T00:22:22.000Z,86.30
2018-06-20T00:24:50.284Z,86.30
2018-06-20T00:27:18.555Z,86.30
2018-06-20T00:29:46.870Z,86.90
2018-06-20T00:32:15.176Z,86.30
2018-06-20T00:34:43.453Z,86.50
2018-06-20T00:37:11.716Z,86.40
2018-06-20T00:39:39.927Z,86.50
2018-06-20T00:42:08.173Z,86.50
2018-06-20T00:44:36.396Z,86.70
2018-06-20T00:47:04.649Z,86.80
2018-06-20T00:52:00.856Z,86.90
2018-06-20T00:54:29.120Z,86.90
2018-06-20T00:56:57.352Z,87.00
2018-06-20T00:59:25.628Z,87.00
2018-06-20T01:01:54.028Z,87.10
2018-06-20T01:04:22.303Z,87.20
2018-06-20T01:06:50.511Z,87.20
2018-06-20T01:09:18.916Z,86.80
2018-06-20T01:11:47.262Z,87.40
2018-06-20T01:14:15.411Z,87.50
2018-06-20T01:16:43.696Z,87.60
2018-06-20T01:19:11.934Z,87.70
2018-06-20T01:21:40.197Z,87.70
2018-06-20T01:24:08.474Z,87.90
2018-06-20T01:26:36.695Z,88.10
2018-06-20T01:29:04.968Z,88.10
2018-06-20T01:31:33.204Z,88.10
2018-06-20T01:34:01.432Z,88.00
2018-06-20T01:36:29.651Z,88.00
2018-06-20T01:38:57.895Z,88.20
2018-06-20T01:41:26.171Z,88.30
2018-06-20T01:43:54.451Z,88.30
2018-06-20T01:46:22.687Z,88.40
2018-06-20T01:48:50.898Z,88.60
2018-06-20T01:51:19.140Z,88.50
2018-06-20T01:53:47.574Z,88.60
2018-06-20T01:56:15.848Z,89.20
2018-06-20T01:58:44.392Z,88.70
2018-06-20T02:01:12.676Z,88.70
2018-06-20T02:03:40.899Z,88.80
2018-06-20T02:06:09.205Z,88.80
2018-06-20T02:08:37.489Z,88.80
2018-06-20T02:11:05.743Z,88.90
2018-06-20T02:13:33.953Z,89.00
2018-06-20T02:16:02.256Z,89.00
2018-06-20T02:18:30.631Z,89.10
2018-06-20T02:20:59.064Z,89.10
2018-06-20T02:23:27.385Z,89.20
2018-06-20T02:25:55.688Z,89.20
2018-06-20T02:30:52.015Z,89.30
2018-06-20T02:33:20.445Z,89.50
2018-06-20T02:35:48.792Z,89.70
2018-06-20T02:38:17.056Z,89.60
2018-06-20T02:40:45.404Z,89.70
2018-06-20T02:43:13.696Z,89.80
2018-06-20T02:45:42.083Z,89.80
2018-06-20T02:48:10.375Z,90.00
2018-06-20T02:50:38.699Z,89.90
2018-06-20T02:53:07.004Z,90.00
2018-06-20T02:55:35.304Z,90.00
2018-06-20T02:58:03.619Z,90.10
2018-06-20T03:00:31.944Z,90.10
2018-06-20T03:03:00.403Z,90.10
2018-06-20T03:05:28.888Z,90.10
2018-06-20T03:07:57.248Z,90.20
2018-06-20T03:10:25.565Z,90.20
2018-06-20T03:12:53.916Z,90.20
2018-06-20T03:15:22.275Z,90.20
2018-06-20T03:17:50.604Z,90.30
2018-06-20T03:20:18.895Z,90.30
2018-06-20T03:22:47.203Z,90.30
2018-06-20T03:25:15.580Z,90.30
2018-06-20T03:27:43.917Z,90.30
2018-06-20T03:30:12.371Z,90.20
2018-06-20T03:32:40.720Z,90.30
2018-06-20T03:35:09.119Z,90.30
2018-06-20T03:37:37.581Z,90.30
2018-06-20T03:40:05.912Z,90.40
2018-06-20T03:42:34.260Z,90.40
2018-06-20T03:45:02.564Z,90.40
2018-06-20T03:47:30.843Z,90.50
2018-06-20T03:49:59.168Z,90.50
2018-06-20T03:52:27.496Z,90.50
2018-06-20T03:54:55.798Z,90.50
2018-06-20T03:57:24.130Z,90.50
2018-06-20T03:59:52.423Z,90.50
2018-06-20T04:02:20.796Z,90.50
2018-06-20T04:04:49.133Z,90.60
2018-06-20T04:07:17.523Z,90.60
2018-06-20T04:09:45.860Z,90.60
2018-06-20T04:12:14.181Z,90.70
2018-06-20T04:14:42.517Z,90.70
2018-06-20T04:17:10.863Z,90.80
2018-06-20T04:19:39.179Z,90.80
2018-06-20T04:22:07.481Z,90.80
2018-06-20T04:24:35.835Z,90.80
2018-06-20T04:27:04.133Z,90.90
2018-06-20T04:29:32.449Z,90.90
2018-06-20T04:32:00.764Z,90.90
2018-06-20T04:34:30.090Z,90.90
2018-06-20T04:36:58.392Z,90.90
2018-06-20T04:39:27.218Z,91.00
2018-06-20T04:41:55.534Z,91.00
2018-06-20T04:44:23.896Z,91.00
2018-06-20T04:46:52.239Z,91.10
2018-06-20T04:49:20.642Z,91.10
2018-06-20T04:51:48.946Z,91.00
2018-06-20T04:54:17.339Z,91.10
2018-06-20T04:56:45.640Z,91.00
2018-06-20T04:59:13.980Z,91.00
2018-06-20T05:01:42.297Z,91.10
2018-06-20T05:04:10.618Z,91.00
2018-06-20T05:06:38.968Z,91.10
2018-06-20T05:09:12.706Z,91.10
2018-06-20T05:11:41.020Z,91.20
2018-06-20T05:14:09.444Z,91.10
2018-06-20T05:16:37.780Z,91.30
2018-06-20T05:19:06.177Z,91.20
2018-06-20T05:21:34.516Z,91.30
2018-06-20T05:24:02.852Z,91.30
2018-06-20T05:26:31.288Z,91.20
2018-06-20T05:28:59.858Z,91.30
2018-06-20T05:31:28.156Z,91.30
2018-06-20T05:36:24.642Z,91.20
2018-06-20T05:38:52.967Z,91.30
2018-06-20T05:41:21.427Z,91.30
2018-06-20T05:43:49.732Z,91.20
2018-06-20T05:46:18.409Z,91.20
2018-06-20T05:48:46.812Z,91.20
2018-06-20T05:53:43.476Z,91.10
2018-06-20T05:56:12.256Z,91.00
2018-06-20T06:01:08.656Z,90.80
2018-06-20T06:03:37.015Z,90.60
2018-06-20T06:06:10.028Z,90.40
2018-06-20T06:08:38.347Z,90.20
2018-06-20T06:11:06.756Z,90.00
2018-06-20T06:13:35.359Z,89.80
2018-06-20T06:16:04.219Z,89.60
2018-06-20T06:21:00.880Z,88.90
2018-06-20T06:23:29.236Z,88.70
2018-06-20T06:25:57.960Z,88.10
2018-06-20T06:28:26.996Z,87.60
2018-06-20T06:30:55.391Z,87.50
2018-06-20T06:33:23.880Z,87.00
2018-06-20T06:35:52.291Z,87.80
2018-06-20T06:38:20.758Z,86.70
2018-06-20T06:40:49.052Z,86.40
2018-06-20T06:43:17.411Z,85.80
2018-06-20T06:45:45.785Z,85.30
2018-06-20T06:48:14.113Z,85.00
2018-06-20T06:50:42.424Z,84.60
2018-06-20T06:53:10.800Z,84.10
2018-06-20T06:58:07.228Z,83.70
2018-06-20T07:00:35.615Z,83.50
2018-06-20T07:03:03.971Z,83.40
2018-06-20T07:05:32.251Z,83.10
2018-06-20T07:08:00.611Z,82.90
2018-06-20T07:10:28.904Z,82.70
2018-06-20T07:12:57.460Z,82.20
2018-06-20T07:15:25.782Z,81.70
2018-06-20T07:17:54.140Z,81.10
2018-06-20T07:20:22.545Z,80.40
2018-06-20T07:22:50.971Z,80.50
2018-06-20T07:25:19.737Z,80.70
2018-06-20T07:27:48.088Z,80.10
2018-06-20T07:30:16.478Z,79.40
2018-06-20T07:32:44.804Z,78.70
2018-06-20T07:35:13.251Z,78.40
2018-06-20T07:37:41.605Z,77.80
2018-06-20T07:42:38.000Z,77.10
2018-06-20T07:45:06.438Z,76.80
2018-06-20T07:47:34.789Z,76.70
2018-06-20T07:50:03.192Z,76.50
2018-06-20T07:52:31.515Z,76.50
2018-06-20T07:54:59.907Z,76.50
2018-06-20T07:57:28.272Z,75.80
2018-06-20T08:00:02.111Z,75.60
2018-06-20T08:03:41.605Z,75.30
2018-06-20T08:06:15.307Z,75.40
2018-06-20T08:08:48.837Z,73.90
2018-06-20T08:11:22.432Z,73.70
2018-06-20T08:13:56.028Z,73.60
2018-06-20T08:16:29.792Z,73.50
2018-06-20T08:21:31.503Z,72.60
2018-06-20T08:24:00.031Z,72.30
2018-06-20T08:26:28.380Z,72.00
2018-06-20T08:28:56.728Z,71.80
2018-06-20T08:31:25.079Z,71.10
2018-06-20T08:33:53.395Z,71.20
2018-06-20T08:36:21.719Z,71.00
2018-06-20T08:38:50.016Z,70.30
2018-06-20T08:41:18.496Z,69.60
2018-06-20T08:43:46.881Z,69.20
2018-06-20T08:48:44.340Z,68.30
2018-06-20T08:51:12.720Z,67.90
2018-06-20T08:53:41.072Z,67.40
2018-06-20T08:56:09.433Z,67.80
2018-06-20T08:58:37.845Z,67.80
2018-06-20T09:01:06.259Z,67.70
2018-06-20T09:03:34.577Z,68.20
2018-06-20T09:06:08.257Z,68.50
2018-06-20T09:08:42.019Z,68.20
2018-06-20T09:11:15.730Z,66.80
2018-06-20T09:14:18.813Z,65.10
2018-06-20T09:16:52.581Z,63.60
2018-06-20T09:19:26.149Z,62.90
2018-06-20T09:21:54.512Z,61.90
2018-06-20T09:24:22.841Z,61.20
2018-06-20T09:26:51.141Z,61.30
2018-06-20T09:29:19.520Z,61.10
2018-06-20T09:31:47.847Z,60.20
2018-06-20T09:34:16.227Z,59.90
2018-06-20T09:36:44.556Z,58.90
2018-06-20T09:39:12.899Z,58.20
2018-06-20T09:41:41.264Z,57.10
2018-06-20T09:44:09.700Z,55.70
2018-06-20T09:46:38.055Z,54.90
2018-06-20T09:49:06.357Z,55.00
2018-06-20T09:51:34.805Z,55.20
2018-06-20T09:54:03.112Z,54.70
2018-06-20T09:56:31.457Z,53.80
2018-06-20T09:59:04.007Z,53.60
2018-06-20T10:01:37.901Z,53.30
2018-06-20T10:04:11.556Z,54.30
2018-06-20T10:06:45.209Z,53.80
2018-06-20T10:09:19.033Z,53.70
2018-06-20T10:11:52.661Z,54.20
2018-06-20T10:14:21.008Z,54.20
2018-06-20T10:16:49.317Z,54.20
2018-06-20T10:19:17.680Z,54.40
2018-06-20T10:21:46.037Z,54.00
2018-06-20T10:24:14.448Z,53.90
2018-06-20T10:26:42.809Z,54.40
2018-06-20T10:29:11.117Z,54.10
2018-06-20T10:31:39.747Z,54.00
2018-06-20T10:34:08.118Z,54.00
2018-06-20T10:36:36.453Z,53.80
2018-06-20T10:39:07.435Z,53.30
2018-06-20T10:41:38.507Z,53.10
2018-06-20T10:44:11.806Z,53.10
2018-06-20T10:46:46.140Z,52.80
2018-06-20T10:49:15.610Z,52.40
2018-06-20T10:54:12.531Z,51.60
2018-06-20T10:56:46.161Z,51.80
2018-06-20T10:59:19.903Z,51.50
2018-06-20T11:01:53.643Z,51.20
2018-06-20T11:04:27.431Z,50.90
2018-06-20T11:07:01.252Z,50.70
2018-06-20T11:09:34.953Z,50.20
2018-06-20T11:12:08.709Z,50.20
2018-06-20T11:14:37.340Z,50.50
2018-06-20T11:17:05.683Z,50.90
2018-06-20T11:19:34.042Z,50.70
2018-06-20T11:22:02.360Z,51.00
2018-06-20T11:24:30.744Z,51.00
2018-06-20T11:26:59.084Z,50.70
2018-06-20T11:29:27.652Z,50.60
2018-06-20T11:31:56.030Z,50.00
2018-06-20T11:34:24.467Z,49.90
2018-06-20T11:36:52.872Z,49.80
2018-06-20T11:39:21.270Z,49.50
2018-06-20T11:41:49.595Z,49.60
2018-06-20T11:44:17.967Z,49.70
2018-06-20T11:46:51.686Z,50.00
2018-06-20T11:49:20.018Z,50.70
2018-06-20T11:51:48.416Z,50.90
2018-06-20T11:54:16.778Z,50.90
2018-06-20T11:56:45.084Z,50.90
2018-06-20T11:59:18.799Z,50.90
2018-06-20T12:01:52.545Z,50.20
2018-06-20T12:04:26.131Z,50.10
2018-06-20T12:06:59.787Z,49.90
2018-06-20T12:09:33.563Z,49.30
2018-06-20T12:12:07.240Z,48.90
2018-06-20T12:14:41.029Z,47.90
2018-06-20T12:17:08.551Z,47.20
2018-06-20T12:19:42.284Z,46.70
2018-06-20T12:22:15.911Z,46.60
2018-06-20T12:24:49.740Z,46.30
2018-06-20T12:27:23.324Z,46.30
2018-06-20T12:29:56.947Z,46.70
2018-06-20T12:32:30.684Z,47.00
2018-06-20T12:35:04.283Z,46.60
2018-06-20T12:37:37.880Z,46.90
2018-06-20T12:42:43.938Z,46.90
2018-06-20T12:45:14.872Z,47.10
2018-06-20T12:47:48.605Z,46.90
2018-06-20T12:50:20.696Z,46.10
2018-06-20T12:52:49.884Z,45.70
2018-06-20T12:55:18.359Z,44.30
2018-06-20T12:57:46.736Z,42.90
2018-06-20T13:00:15.320Z,41.80
2018-06-20T13:02:43.979Z,41.50
2018-06-20T13:05:12.344Z,41.60
2018-06-20T13:07:40.727Z,41.60
2018-06-20T13:10:09.169Z,41.10
2018-06-20T13:12:37.616Z,40.80
2018-06-20T13:15:05.917Z,40.20
2018-06-20T13:17:34.293Z,40.20
2018-06-20T13:22:31.347Z,41.20
2018-06-20T13:24:59.698Z,41.10
2018-06-20T13:27:33.283Z,41.10
2018-06-20T13:30:06.916Z,40.20
2018-06-20T13:32:40.744Z,41.40
2018-06-20T13:35:14.495Z,41.40
2018-06-20T13:37:48.289Z,41.80
2018-06-20T13:40:21.835Z,41.40
2018-06-20T13:42:55.911Z,41.10
2018-06-20T13:45:29.551Z,40.00
2018-06-20T13:48:03.309Z,39.30
2018-06-20T13:50:32.108Z,38.70
2018-06-20T13:53:00.520Z,38.50
2018-06-20T13:55:28.932Z,38.50
2018-06-20T13:57:57.265Z,37.50
2018-06-20T14:00:25.911Z,38.00
2018-06-20T14:02:54.316Z,38.60
2018-06-20T14:05:22.633Z,39.40
2018-06-20T14:07:50.975Z,39.70
2018-06-20T14:10:19.367Z,40.20
2018-06-20T14:12:47.685Z,39.10
2018-06-20T14:15:16.070Z,38.90
2018-06-20T14:17:44.464Z,37.90
2018-06-20T14:20:18.166Z,36.70
2018-06-20T14:22:46.507Z,36.30
2018-06-20T14:25:14.783Z,35.90
2018-06-20T14:27:43.128Z,35.30
2018-06-20T14:30:11.504Z,35.50
2018-06-20T14:32:45.061Z,36.00
2018-06-20T14:35:19.224Z,36.20
2018-06-20T14:37:52.791Z,36.20
2018-06-20T14:40:26.501Z,36.20
2018-06-20T14:43:00.176Z,36.90
2018-06-20T14:45:33.877Z,37.70
2018-06-20T14:48:02.281Z,38.50
2018-06-20T14:50:30.589Z,38.90
2018-06-20T14:52:58.969Z,39.00
2018-06-20T14:55:27.272Z,38.80
2018-06-20T14:57:55.593Z,38.30
2018-06-20T15:00:23.936Z,38.50
2018-06-20T15:02:52.248Z,38.80
2018-06-20T15:05:20.580Z,39.20
2018-06-20T15:07:48.881Z,40.00
2018-06-20T15:10:17.281Z,40.40
2018-06-20T15:12:45.629Z,40.80
2018-06-20T15:15:13.988Z,41.20
2018-06-20T15:17:42.297Z,41.70
2018-06-20T15:20:10.773Z,42.40
2018-06-20T15:22:44.308Z,42.90
2018-06-20T15:25:12.600Z,43.30
2018-06-20T15:27:46.139Z,43.30
2018-06-20T15:30:19.676Z,43.50
2018-06-20T15:32:53.448Z,44.10
2018-06-20T15:35:27.341Z,44.60
2018-06-20T15:38:01.073Z,44.90
2018-06-20T15:40:29.570Z,45.00
2018-06-20T15:42:57.991Z,45.10
2018-06-20T15:45:26.328Z,45.00
2018-06-20T15:47:54.631Z,45.60
2018-06-20T15:50:22.963Z,46.10
2018-06-20T15:52:51.565Z,46.40
2018-06-20T15:55:19.939Z,46.30
2018-06-20T15:57:48.289Z,46.30
2018-06-20T16:02:44.794Z,46.60
2018-06-20T16:05:13.197Z,46.20
2018-06-20T16:07:41.522Z,46.30
2018-06-20T16:10:11.926Z,46.50
2018-06-20T16:12:40.276Z,47.00
2018-06-20T16:15:08.589Z,46.90
2018-06-20T16:17:37.860Z,46.80
2018-06-20T16:20:11.528Z,47.20
2018-06-20T16:22:45.057Z,47.10
2018-06-20T16:25:18.807Z,47.00
2018-06-20T16:27:52.415Z,47.40
2018-06-20T16:30:30.116Z,47.40
2018-06-20T16:32:58.483Z,47.40
2018-06-20T16:35:26.892Z,47.80
2018-06-20T16:37:55.759Z,48.20
2018-06-20T16:40:23.936Z,47.30
2018-06-20T16:42:52.615Z,47.50
2018-06-20T16:45:21.020Z,47.60
2018-06-20T16:47:49.335Z,47.60
2018-06-20T16:50:17.700Z,48.00
2018-06-20T16:52:46.128Z,48.40
2018-06-20T16:55:14.468Z,48.40
2018-06-20T16:57:42.860Z,48.00
2018-06-20T17:00:11.256Z,48.00
2018-06-20T17:02:41.083Z,48.20
2018-06-20T17:05:09.896Z,48.50
2018-06-20T17:07:38.239Z,49.50
2018-06-20T17:10:06.731Z,49.40
2018-06-20T17:12:40.447Z,49.70
2018-06-20T17:15:14.135Z,50.00
2018-06-20T17:17:47.855Z,50.50
2018-06-20T17:20:21.637Z,50.70
2018-06-20T17:22:55.227Z,50.90
2018-06-20T17:25:27.596Z,50.60
2018-06-20T17:27:55.965Z,50.90
2018-06-20T17:30:24.279Z,50.90
2018-06-20T17:32:52.649Z,50.90
2018-06-20T17:35:20.948Z,51.10
2018-06-20T17:37:49.257Z,51.50
2018-06-20T17:42:45.767Z,51.70
2018-06-20T17:45:14.267Z,52.00
2018-06-20T17:47:42.572Z,52.20
2018-06-20T17:52:39.132Z,52.60
2018-06-20T17:55:07.582Z,52.90
2018-06-20T17:57:36.011Z,53.10
2018-06-20T18:00:04.640Z,53.20
2018-06-20T18:02:32.973Z,53.70
2018-06-20T18:05:06.560Z,53.40
2018-06-20T18:07:40.127Z,53.40
2018-06-20T18:10:13.873Z,53.70
2018-06-20T18:12:47.800Z,53.70
2018-06-20T18:15:21.440Z,53.80
2018-06-20T18:17:49.696Z,54.10
2018-06-20T18:20:18.079Z,54.50
2018-06-20T18:22:46.448Z,54.80
2018-06-20T18:25:14.783Z,55.50
2018-06-20T18:27:43.111Z,55.00
2018-06-20T18:30:11.412Z,55.00
2018-06-20T18:32:39.676Z,55.20
2018-06-20T18:35:08.013Z,55.20
2018-06-20T18:37:36.642Z,55.20
2018-06-20T18:40:06.669Z,55.50
2018-06-20T18:42:35.710Z,55.70
2018-06-20T18:45:04.243Z,56.00
2018-06-20T18:47:38.121Z,56.10
2018-06-20T18:50:06.804Z,56.30
2018-06-20T18:52:35.372Z,57.10
2018-06-20T18:55:03.778Z,57.90
2018-06-20T18:57:37.483Z,58.60
2018-06-20T19:00:12.181Z,59.20
2018-06-20T19:02:45.839Z,59.90
2018-06-20T19:05:20.060Z,60.60
2018-06-20T19:07:53.808Z,61.20
2018-06-20T19:10:22.138Z,61.80
2018-06-20T19:12:50.416Z,62.50
2018-06-20T19:15:18.964Z,62.80
2018-06-20T19:17:47.236Z,63.50
2018-06-20T19:20:15.640Z,64.00
2018-06-20T19:22:43.937Z,64.80
2018-06-20T19:25:12.379Z,65.40
2018-06-20T19:27:40.784Z,66.00
2018-06-20T19:30:09.101Z,66.70
2018-06-20T19:32:37.440Z,67.40
2018-06-20T19:35:05.771Z,68.00
2018-06-20T19:37:34.088Z,68.50
2018-06-20T19:40:02.387Z,69.10
2018-06-20T19:44:58.814Z,70.00
2018-06-20T19:47:27.176Z,70.40
2018-06-20T19:49:55.540Z,70.80
2018-06-20T19:52:23.935Z,71.70
2018-06-20T19:54:52.250Z,71.30
2018-06-20T19:57:20.569Z,71.70
2018-06-20T19:59:48.877Z,71.80
2018-06-20T20:02:17.281Z,72.20
2018-06-20T20:04:45.688Z,72.50
2018-06-20T20:07:13.996Z,72.80
2018-06-20T20:09:42.449Z,73.10
2018-06-20T20:14:38.939Z,73.90
2018-06-20T20:17:07.292Z,74.10
2018-06-20T20:19:35.620Z,74.40
2018-06-20T20:22:04.045Z,74.70
2018-06-20T20:24:32.472Z,75.10
2018-06-20T20:27:00.808Z,75.50
2018-06-20T20:29:29.113Z,75.70
2018-06-20T20:31:57.497Z,76.10
2018-06-20T20:34:25.810Z,76.30
2018-06-20T20:36:54.929Z,76.50
2018-06-20T20:39:23.272Z,76.70
2018-06-20T20:41:51.840Z,76.90
2018-06-20T20:44:20.155Z,77.10
2018-06-20T20:46:48.485Z,77.40
2018-06-20T20:49:16.784Z,77.60
2018-06-20T20:51:45.104Z,77.80
2018-06-20T20:54:13.472Z,78.20
2018-06-20T20:59:09.812Z,78.60
2018-06-20T21:01:38.145Z,79.00
2018-06-20T21:04:06.464Z,79.30
2018-06-20T21:06:34.845Z,79.50
2018-06-20T21:09:03.196Z,79.50
2018-06-20T21:11:32.384Z,79.60
2018-06-20T21:14:01.480Z,79.90
2018-06-20T21:16:29.852Z,80.10
2018-06-20T21:18:58.684Z,80.30
2018-06-20T21:21:27.156Z,80.50
2018-06-20T21:23:55.449Z,80.80
2018-06-20T21:26:23.846Z,81.00
2018-06-20T21:28:52.220Z,81.10
2018-06-20T21:31:20.623Z,81.30
2018-06-20T21:33:48.940Z,81.50
2018-06-20T21:36:17.441Z,81.70
2018-06-20T21:38:45.820Z,81.90
2018-06-20T21:41:14.196Z,82.00
2018-06-20T21:43:42.515Z,82.20
2018-06-20T21:46:11.083Z,82.50
2018-06-20T21:48:39.541Z,82.70
2018-06-20T21:51:07.853Z,82.80
2018-06-20T21:53:36.163Z,83.00
2018-06-20T21:56:04.490Z,83.20
2018-06-20T21:58:32.771Z,83.40
2018-06-20T22:01:01.128Z,83.50
2018-06-20T22:03:29.461Z,83.70
2018-06-20T22:05:57.788Z,84.20
2018-06-20T22:08:26.225Z,84.40
2018-06-20T22:10:54.595Z,84.40
2018-06-20T22:13:23.072Z,84.60
2018-06-20T22:15:51.420Z,84.80
2018-06-20T22:18:19.737Z,85.00
2018-06-20T22:23:16.153Z,85.20
2018-06-20T22:25:44.459Z,85.10
2018-06-20T22:28:12.881Z,85.40
2018-06-20T22:30:41.319Z,85.40
2018-06-20T22:33:09.641Z,85.50
2018-06-20T22:35:37.984Z,85.60
2018-06-20T22:38:06.317Z,85.80
2018-06-20T22:40:34.686Z,86.00
2018-06-20T22:43:02.979Z,86.20
2018-06-20T22:45:31.296Z,87.10
2018-06-20T22:47:59.640Z,86.40
2018-06-20T22:50:27.971Z,86.70
2018-06-20T22:52:56.280Z,86.80
2018-06-20T22:55:24.651Z,86.90
2018-06-20T22:57:52.997Z,87.00
2018-06-20T23:00:21.352Z,87.30
2018-06-20T23:02:49.696Z,87.30
2018-06-20T23:05:18.067Z,87.20
2018-06-20T23:07:46.405Z,87.20
2018-06-20T23:10:14.746Z,87.30
2018-06-20T23:12:43.116Z,87.50
2018-06-20T23:15:11.488Z,87.60
2018-06-20T23:17:39.812Z,87.80
2018-06-20T23:22:36.323Z,88.20
2018-06-20T23:25:04.692Z,88.20
2018-06-20T23:27:33.020Z,88.30
2018-06-20T23:30:01.348Z,88.40
2018-06-20T23:32:29.660Z,88.60
2018-06-20T23:34:57.992Z,88.70
2018-06-20T23:37:26.319Z,88.70
2018-06-20T23:39:54.676Z,88.70
2018-06-20T23:42:23.040Z,88.80
2018-06-20T23:44:51.422Z,89.10
2018-06-20T23:47:19.823Z,89.20
2018-06-20T23:49:48.119Z,89.10
2018-06-20T23:52:16.468Z,89.20
2018-06-20T23:54:44.869Z,89.30
2018-06-20T23:57:13.208Z,89.50
2018-06-20T23:59:41.591Z,89.70
